createdAt,value
2023-10-26T00:01:40.158Z,96407.25
2023-10-26T00:04:06.844Z,96396.22
2023-10-26T00:06:33.455Z,96401.41
2023-10-26T00:09:00.004Z,96396.13
2023-10-26T00:11:26.588Z,96397.19
2023-10-26T00:13:53.131Z,96397.63
2023-10-26T00:16:19.733Z,96406.59
2023-10-26T00:18:46.525Z,96398.88
2023-10-26T00:21:13.197Z,96408.16
2023-10-26T00:23:40.072Z,96395.66
2023-10-26T00:26:06.625Z,96398.28
2023-10-26T00:28:33.391Z,96398.09
2023-10-26T00:30:59.964Z,96400.09
2023-10-26T00:33:26.522Z,96399.78
2023-10-26T00:35:54.062Z,96394.06
2023-10-26T00:38:20.687Z,96398.69
2023-10-26T00:40:47.445Z,96382.28
2023-10-26T00:43:23.960Z,96378.25
2023-10-26T00:45:54.197Z,96382.09
2023-10-26T00:48:21.767Z,96374.78
2023-10-26T00:50:51.329Z,96376.34
2023-10-26T00:53:19.275Z,96374.78
2023-10-26T00:55:47.334Z,96371.38
2023-10-26T00:58:15.049Z,96360.72
2023-10-26T01:00:41.988Z,96371.09
2023-10-26T01:03:09.039Z,96368.94
2023-10-26T01:05:35.740Z,96363.84
2023-10-26T01:08:02.309Z,96353.78
2023-10-26T01:10:29.169Z,96359.16
2023-10-26T01:12:55.929Z,96362.25
2023-10-26T01:15:24.497Z,96355.91
2023-10-26T01:17:51.290Z,96351.41
2023-10-26T01:20:18.822Z,96353.47
2023-10-26T01:22:45.475Z,96343.50
2023-10-26T01:25:12.086Z,96343.50
2023-10-26T01:27:39.873Z,96335.41
2023-10-26T01:30:07.654Z,96333.50
2023-10-26T01:32:34.157Z,96330.03
2023-10-26T01:35:00.740Z,96336.34
2023-10-26T01:37:27.225Z,96334.47
2023-10-26T01:39:53.900Z,96335.72
2023-10-26T01:42:20.471Z,96342.56
2023-10-26T01:44:47.033Z,96350.28
2023-10-26T01:47:14.600Z,96347.44
2023-10-26T01:49:41.203Z,96346.59
2023-10-26T01:52:08.196Z,96345.13
2023-10-26T01:54:34.769Z,96353.03
2023-10-26T01:57:01.498Z,96354.81
2023-10-26T01:59:28.200Z,96352.19
2023-10-26T02:01:54.856Z,96352.44
2023-10-26T02:04:21.499Z,96362.25
2023-10-26T02:06:48.260Z,96357.69
2023-10-26T02:09:15.078Z,96347.81
2023-10-26T02:11:41.622Z,96343.59
2023-10-26T02:14:08.213Z,96339.25
2023-10-26T02:16:34.781Z,96347.06
2023-10-26T02:19:01.643Z,96350.25
2023-10-26T02:21:28.494Z,96344.97
2023-10-26T02:23:55.144Z,96348.19
2023-10-26T02:26:21.738Z,96341.78
2023-10-26T02:28:48.386Z,96344.22
2023-10-26T02:31:14.944Z,96333.88
2023-10-26T02:33:41.611Z,96336.50
2023-10-26T02:36:09.310Z,96324.91
2023-10-26T02:38:35.875Z,96325.41
2023-10-26T02:41:05.715Z,96319.00
2023-10-26T02:43:32.632Z,96326.72
2023-10-26T02:46:03.121Z,96333.09
2023-10-26T02:48:29.703Z,96328.09
2023-10-26T02:50:56.772Z,96330.66
2023-10-26T02:53:23.739Z,96324.91
2023-10-26T02:55:50.310Z,96337.53
2023-10-26T02:58:16.870Z,96341.66
2023-10-26T03:00:43.609Z,96337.53
2023-10-26T03:03:10.348Z,96336.38
2023-10-26T03:05:39.314Z,96332.72
2023-10-26T03:08:06.493Z,96327.56
2023-10-26T03:10:33.210Z,96329.88
2023-10-26T03:12:59.836Z,96327.06
2023-10-26T03:15:26.520Z,96334.13
2023-10-26T03:17:53.509Z,96322.44
2023-10-26T03:20:20.164Z,96332.44
2023-10-26T03:22:46.753Z,96332.13
2023-10-26T03:25:15.451Z,96327.81
2023-10-26T03:30:22.923Z,96334.66
2023-10-26T03:32:49.463Z,96335.53
2023-10-26T03:35:16.161Z,96330.16
2023-10-26T03:37:42.682Z,96330.16
2023-10-26T03:40:09.485Z,96329.38
2023-10-26T03:42:36.301Z,96322.03
2023-10-26T03:45:02.785Z,96310.34
2023-10-26T03:47:29.350Z,96321.00
2023-10-26T03:49:56.760Z,96316.38
2023-10-26T03:52:23.504Z,96316.75
2023-10-26T03:54:50.935Z,96317.34
2023-10-26T03:57:17.585Z,96316.50
2023-10-26T03:59:44.213Z,96322.34
2023-10-26T04:02:12.438Z,96319.91
2023-10-26T04:04:39.531Z,96318.59
2023-10-26T04:07:06.924Z,96326.22
2023-10-26T04:09:33.575Z,96318.63
2023-10-26T04:12:00.435Z,96319.03
2023-10-26T04:14:27.631Z,96319.91
2023-10-26T04:16:54.230Z,96305.56
2023-10-26T04:19:20.805Z,96317.72
2023-10-26T04:21:47.288Z,96317.81
2023-10-26T04:24:13.922Z,96317.91
2023-10-26T04:26:40.396Z,96322.78
2023-10-26T04:29:08.171Z,96318.38
2023-10-26T04:31:35.332Z,96302.63
2023-10-26T04:34:01.930Z,96302.22
2023-10-26T04:36:28.833Z,96291.97
2023-10-26T04:38:55.628Z,96288.47
2023-10-26T04:41:22.762Z,96289.03
2023-10-26T04:43:49.634Z,96295.16
2023-10-26T04:46:16.364Z,96297.72
2023-10-26T04:48:43.002Z,96298.34
2023-10-26T04:51:10.012Z,96291.59
2023-10-26T04:53:36.737Z,96284.25
2023-10-26T04:56:04.128Z,96280.00
2023-10-26T04:58:30.746Z,96282.44
2023-10-26T05:00:57.607Z,96299.97
2023-10-26T05:03:24.237Z,96299.13
2023-10-26T05:05:50.868Z,96301.56
2023-10-26T05:08:17.447Z,96299.88
2023-10-26T05:10:44.015Z,96299.78
2023-10-26T05:13:11.849Z,96306.00
2023-10-26T05:15:38.606Z,96311.88
2023-10-26T05:18:05.394Z,96312.63
2023-10-26T05:20:34.245Z,96308.94
2023-10-26T05:23:01.257Z,96322.78
2023-10-26T05:25:27.796Z,96323.66
2023-10-26T05:27:54.558Z,96326.47
2023-10-26T05:30:22.399Z,96334.94
2023-10-26T05:32:49.116Z,96333.78
2023-10-26T05:35:18.466Z,96319.47
2023-10-26T05:37:44.944Z,96323.59
2023-10-26T05:40:11.827Z,96315.56
2023-10-26T05:42:41.156Z,96312.53
2023-10-26T05:45:08.292Z,96304.59
2023-10-26T05:47:34.944Z,96310.66
2023-10-26T05:50:01.593Z,96311.78
2023-10-26T05:52:28.275Z,96316.72
2023-10-26T05:54:55.494Z,96331.97
2023-10-26T05:57:22.090Z,96332.28
2023-10-26T05:59:49.077Z,96340.84
2023-10-26T06:02:15.649Z,96347.94
2023-10-26T06:04:42.420Z,96356.13
2023-10-26T06:07:09.251Z,96348.53
2023-10-26T06:09:38.504Z,96341.69
2023-10-26T06:12:05.190Z,96344.06
2023-10-26T06:14:32.021Z,96355.06
2023-10-26T06:16:58.656Z,96348.06
2023-10-26T06:19:25.191Z,96356.34
2023-10-26T06:21:51.807Z,96354.97
2023-10-26T06:24:18.604Z,96353.06
2023-10-26T06:26:45.121Z,96354.34
2023-10-26T06:29:11.649Z,96363.66
2023-10-26T06:31:38.259Z,96363.66
2023-10-26T06:34:04.782Z,96365.13
2023-10-26T06:36:31.449Z,96360.69
2023-10-26T06:38:58.218Z,96373.81
2023-10-26T06:41:24.873Z,96363.34
2023-10-26T06:43:52.761Z,96356.34
2023-10-26T06:46:19.386Z,96363.53
2023-10-26T06:48:46.115Z,96370.22
2023-10-26T06:51:12.920Z,96371.69
2023-10-26T06:53:39.450Z,96375.50
2023-10-26T06:56:12.672Z,96371.19
2023-10-26T06:58:41.047Z,96380.88
2023-10-26T07:01:19.291Z,96382.28
2023-10-26T07:03:47.525Z,96374.25
2023-10-26T07:06:14.937Z,96365.34
2023-10-26T07:08:41.622Z,96369.78
2023-10-26T07:11:08.276Z,96377.03
2023-10-26T07:13:35.499Z,96364.97
2023-10-26T07:16:03.246Z,96364.03
2023-10-26T07:18:30.227Z,96361.47
2023-10-26T07:20:58.144Z,96363.47
2023-10-26T07:23:24.583Z,96360.56
2023-10-26T07:25:51.336Z,96368.06
2023-10-26T07:28:18.213Z,96367.50
2023-10-26T07:30:45.147Z,96364.41
2023-10-26T07:33:11.911Z,96366.31
2023-10-26T07:35:44.666Z,96365.88
2023-10-26T07:38:35.578Z,96365.78
2023-10-26T07:41:01.603Z,96369.13
2023-10-26T07:43:29.129Z,96367.91
2023-10-26T07:45:58.418Z,96377.34
2023-10-26T07:48:25.076Z,96375.84
2023-10-26T07:50:52.440Z,96376.22
2023-10-26T07:53:18.991Z,96383.31
2023-10-26T07:55:47.891Z,96377.28
2023-10-26T07:58:16.716Z,96373.16
2023-10-26T08:00:43.375Z,96375.25
2023-10-26T08:03:10.187Z,96380.69
2023-10-26T08:05:36.695Z,96379.19
2023-10-26T08:08:04.171Z,96372.38
2023-10-26T08:10:36.631Z,96374.19
2023-10-26T08:13:04.564Z,96372.13
2023-10-26T08:16:11.064Z,96367.09
2023-10-26T08:18:17.851Z,96369.38
2023-10-26T08:20:50.512Z,96364.53
2023-10-26T08:23:17.124Z,96353.91
2023-10-26T08:25:43.697Z,96361.81
2023-10-26T08:28:10.318Z,57215.63
2023-10-26T08:30:43.494Z,96354.97
2023-10-26T08:33:13.276Z,96365.47
2023-10-26T08:35:42.705Z,96355.59
2023-10-26T08:38:09.302Z,96353.06
2023-10-26T08:40:36.152Z,96346.31
2023-10-26T08:43:06.404Z,96353.72
2023-10-26T08:45:33.007Z,96352.50
2023-10-26T08:47:59.744Z,96360.22
2023-10-26T08:50:26.493Z,96362.75
2023-10-26T08:52:53.321Z,96365.78
2023-10-26T08:55:20.084Z,96359.53
2023-10-26T08:57:53.520Z,96355.09
2023-10-26T09:00:20.983Z,96357.94
2023-10-26T09:02:49.504Z,96360.00
2023-10-26T09:05:16.556Z,96356.91
2023-10-26T09:07:44.865Z,96344.06
2023-10-26T09:10:12.110Z,96351.41
2023-10-26T09:12:38.731Z,57215.63
2023-10-26T09:15:07.411Z,96342.41
2023-10-26T09:17:35.067Z,96338.09
2023-10-26T09:20:22.717Z,96326.59
2023-10-26T09:22:49.677Z,96337.53
2023-10-26T09:25:16.861Z,96332.66
2023-10-26T09:27:44.406Z,96322.25
2023-10-26T09:30:27.314Z,96332.78
2023-10-26T09:32:54.103Z,96324.78
2023-10-26T09:35:27.744Z,96318.63
2023-10-26T09:37:54.644Z,96319.75
2023-10-26T09:40:22.158Z,96314.84
2023-10-26T09:42:52.061Z,96311.91
2023-10-26T09:45:20.625Z,96311.91
2023-10-26T09:47:48.392Z,57215.63
2023-10-26T09:50:15.386Z,96311.91
2023-10-26T09:52:45.485Z,57215.63
2023-10-26T09:55:12.673Z,57215.63
2023-10-26T09:57:59.568Z,57215.63
2023-10-26T10:00:32.016Z,76518.06
2023-10-26T10:03:17.748Z,96284.56
2023-10-26T10:05:45.221Z,96286.53
2023-10-26T10:08:12.202Z,96272.25
2023-10-26T10:10:58.653Z,96275.88
2023-10-26T10:13:38.332Z,96263.59
2023-10-26T10:16:05.035Z,96264.69
2023-10-26T10:18:31.662Z,96259.13
2023-10-26T10:20:58.400Z,96256.69
2023-10-26T10:23:29.332Z,96254.94
2023-10-26T10:26:00.530Z,96247.66
2023-10-26T10:28:42.209Z,96252.63
2023-10-26T10:31:12.990Z,96251.56
2023-10-26T10:33:40.610Z,96243.53
2023-10-26T10:36:09.259Z,96234.91
2023-10-26T10:38:36.445Z,96230.22
2023-10-26T10:41:08.634Z,96228.44
2023-10-26T10:43:37.083Z,96236.19
2023-10-26T10:46:13.755Z,96224.63
2023-10-26T10:48:55.552Z,96229.31
2023-10-26T10:51:22.169Z,96223.88
2023-10-26T10:53:51.762Z,96226.41
2023-10-26T10:56:18.444Z,96222.97
2023-10-26T10:58:45.196Z,96221.69
2023-10-26T11:01:18.147Z,96214.00
2023-10-26T11:03:44.871Z,96215.97
2023-10-26T11:06:15.965Z,96208.47
2023-10-26T11:08:51.800Z,96197.53
2023-10-26T11:11:27.702Z,96203.19
2023-10-26T11:14:09.895Z,96200.63
2023-10-26T11:16:37.504Z,96191.88
2023-10-26T11:19:04.496Z,96197.47
2023-10-26T11:21:31.121Z,96205.31
2023-10-26T11:23:58.925Z,96199.63
2023-10-26T11:26:25.457Z,96199.97
2023-10-26T11:28:52.047Z,96203.03
2023-10-26T11:31:40.446Z,96189.06
2023-10-26T11:34:08.362Z,96180.78
2023-10-26T11:36:36.111Z,96176.31
2023-10-26T11:39:03.780Z,96170.13
2023-10-26T11:41:30.726Z,96164.31
2023-10-26T11:43:57.870Z,96163.69
2023-10-26T11:46:37.200Z,96152.84
2023-10-26T11:49:04.950Z,96140.28
2023-10-26T11:51:34.939Z,96152.63
2023-10-26T11:54:12.410Z,96143.22
2023-10-26T11:56:41.253Z,96143.69
2023-10-26T11:59:07.862Z,96152.69
2023-10-26T12:01:34.746Z,96150.88
2023-10-26T12:04:01.613Z,96155.69
2023-10-26T12:06:29.840Z,96153.94
2023-10-26T12:08:58.492Z,96155.41
2023-10-26T12:11:25.708Z,96149.56
2023-10-26T12:13:52.318Z,96153.41
2023-10-26T12:16:18.949Z,96150.22
2023-10-26T12:18:45.682Z,96148.00
2023-10-26T12:21:12.277Z,96148.72
2023-10-26T12:23:38.876Z,96151.09
2023-10-26T12:26:05.483Z,96146.59
2023-10-26T12:28:32.070Z,96149.09
2023-10-26T12:30:58.747Z,96149.41
2023-10-26T12:33:25.565Z,96149.72
2023-10-26T12:35:52.234Z,96149.50
2023-10-26T12:38:20.963Z,96146.97
2023-10-26T12:40:48.175Z,96148.22
2023-10-26T12:43:14.886Z,96147.06
2023-10-26T12:45:41.601Z,96145.50
2023-10-26T12:48:08.599Z,96140.09
2023-10-26T12:50:35.203Z,96146.56
2023-10-26T12:53:01.879Z,96151.72
2023-10-26T12:55:30.884Z,96155.03
2023-10-26T12:57:59.204Z,96148.50
2023-10-26T13:00:25.914Z,96147.84
2023-10-26T13:02:52.487Z,96154.44
2023-10-26T13:05:19.212Z,96154.88
2023-10-26T13:07:45.948Z,96155.03
2023-10-26T13:10:12.513Z,96158.16
2023-10-26T13:12:40.923Z,96162.53
2023-10-26T13:15:07.851Z,96161.81
2023-10-26T13:17:35.000Z,96163.28
2023-10-26T13:20:02.101Z,96161.81
2023-10-26T13:22:28.756Z,96163.97
2023-10-26T13:24:55.469Z,96168.09
2023-10-26T13:27:22.351Z,96162.41
2023-10-26T13:29:49.650Z,96168.34
2023-10-26T13:32:16.530Z,96172.88
2023-10-26T13:34:43.279Z,96165.63
2023-10-26T13:37:10.022Z,96172.72
2023-10-26T13:39:36.790Z,96174.16
2023-10-26T13:42:03.605Z,96170.66
2023-10-26T13:44:30.185Z,96173.09
2023-10-26T13:46:56.789Z,96174.03
2023-10-26T13:49:23.356Z,57215.63
2023-10-26T13:51:51.567Z,57215.63
2023-10-26T13:54:18.473Z,57215.63
2023-10-26T13:56:45.239Z,57215.63
2023-10-26T13:59:11.902Z,57215.63
2023-10-26T14:01:47.699Z,57215.63
2023-10-26T14:04:15.598Z,57215.63
2023-10-26T14:06:42.173Z,57215.63
2023-10-26T14:09:09.929Z,57215.63
2023-10-26T14:11:36.557Z,57215.63
2023-10-26T14:14:03.184Z,57215.63
2023-10-26T14:16:31.889Z,57215.63
2023-10-26T14:19:00.499Z,57215.63
2023-10-26T14:21:27.716Z,57215.63
2023-10-26T14:23:54.315Z,57215.63
2023-10-26T14:26:20.911Z,57215.63
2023-10-26T14:28:48.902Z,57215.63
2023-10-26T14:31:17.644Z,57215.63
2023-10-26T14:33:46.657Z,57215.63
2023-10-26T14:36:13.333Z,57215.63
2023-10-26T14:38:39.999Z,57215.63
2023-10-26T14:41:06.581Z,57215.63
2023-10-26T14:43:33.169Z,57215.63
2023-10-26T14:45:59.796Z,57215.63
2023-10-26T14:48:26.443Z,57215.63
2023-10-26T14:51:00.021Z,57215.63
2023-10-26T14:53:26.916Z,57215.63
2023-10-26T14:55:53.830Z,57215.63
2023-10-26T14:58:22.058Z,57215.63
2023-10-26T15:00:51.435Z,57215.63
2023-10-26T15:03:18.138Z,57215.63
2023-10-26T15:05:44.772Z,57215.63
2023-10-26T15:08:11.620Z,57215.63
2023-10-26T15:10:38.713Z,57215.63
2023-10-26T15:13:05.588Z,57215.63
2023-10-26T15:15:32.630Z,57215.63
2023-10-26T15:18:00.196Z,57215.63
2023-10-26T15:20:26.883Z,57215.63
2023-10-26T15:22:53.415Z,57215.63
2023-10-26T15:25:20.113Z,57215.63
2023-10-26T15:27:46.706Z,57215.63
2023-10-26T15:30:13.668Z,57215.63
2023-10-26T15:32:40.309Z,57215.63
2023-10-26T15:35:07.042Z,57215.63
2023-10-26T15:37:33.657Z,57215.63
2023-10-26T15:40:00.341Z,57215.63
2023-10-26T15:42:29.564Z,57215.63
2023-10-26T15:44:56.283Z,57215.63
2023-10-26T15:47:25.806Z,57215.63
2023-10-26T15:49:52.898Z,57215.63
2023-10-26T15:52:19.959Z,57215.63
2023-10-26T15:54:46.681Z,57215.63
2023-10-26T15:57:14.342Z,57215.63
2023-10-26T15:59:40.910Z,57215.63
2023-10-26T16:02:08.749Z,57215.63
2023-10-26T16:04:35.478Z,57215.63
2023-10-26T16:07:02.211Z,57215.63
2023-10-26T16:09:34.162Z,57215.63
2023-10-26T16:12:02.653Z,57215.63
2023-10-26T16:14:29.332Z,57215.63
2023-10-26T16:16:56.007Z,57215.63
2023-10-26T16:19:23.703Z,57215.63
2023-10-26T16:21:50.325Z,57215.63
2023-10-26T16:24:19.266Z,57215.63
2023-10-26T16:26:45.915Z,57215.63
2023-10-26T16:29:14.385Z,57215.63
2023-10-26T16:31:40.985Z,57215.63
2023-10-26T16:34:10.315Z,57215.63
2023-10-26T16:36:36.873Z,57215.63
2023-10-26T16:39:04.072Z,57215.63
2023-10-26T16:41:33.652Z,57215.63
2023-10-26T16:44:01.141Z,57215.63
2023-10-26T16:46:27.761Z,57215.63
2023-10-26T16:48:54.455Z,57215.63
2023-10-26T16:51:21.246Z,57215.63
2023-10-26T16:53:53.380Z,57215.63
2023-10-26T16:56:19.895Z,57215.63
2023-10-26T16:58:46.680Z,57215.63
2023-10-26T17:01:13.569Z,57215.63
2023-10-26T17:03:40.250Z,57215.63
2023-10-26T17:06:09.823Z,57215.63
2023-10-26T17:08:36.982Z,57215.63
2023-10-26T17:11:04.691Z,57215.63
2023-10-26T17:13:31.424Z,57215.63
2023-10-26T17:15:58.260Z,57215.63
2023-10-26T17:18:26.997Z,57215.63
2023-10-26T17:20:57.014Z,57215.63
2023-10-26T17:23:23.671Z,57215.63
2023-10-26T17:25:50.236Z,57215.63
2023-10-26T17:28:16.980Z,57215.63
2023-10-26T17:30:43.532Z,57215.63
2023-10-26T17:33:14.462Z,57215.63
2023-10-26T17:35:49.124Z,57215.63
2023-10-26T17:38:16.153Z,57215.63
2023-10-26T17:40:45.502Z,57215.63
2023-10-26T17:43:16.401Z,57215.63
2023-10-26T17:45:43.270Z,57215.63
2023-10-26T17:48:10.995Z,57215.63
2023-10-26T17:50:39.769Z,57215.63
2023-10-26T17:53:06.408Z,57215.63
2023-10-26T17:55:37.344Z,57215.63
2023-10-26T17:58:03.862Z,57215.63
2023-10-26T18:00:31.028Z,57215.63
2023-10-26T18:02:59.889Z,57215.63
2023-10-26T18:05:27.578Z,57215.63
2023-10-26T18:07:54.571Z,57215.63
2023-10-26T18:10:21.670Z,57215.63
2023-10-26T18:12:48.529Z,57215.63
2023-10-26T18:15:15.201Z,57215.63
2023-10-26T18:17:41.728Z,57215.63
2023-10-26T18:20:10.270Z,57215.63
2023-10-26T18:22:36.842Z,57215.63
2023-10-26T18:25:03.750Z,57215.63
2023-10-26T18:27:33.217Z,57215.63
2023-10-26T18:29:59.944Z,57215.63
2023-10-26T18:32:26.510Z,57215.63
2023-10-26T18:34:53.032Z,57215.63
2023-10-26T18:37:26.282Z,57215.63
2023-10-26T18:39:55.014Z,57215.63
2023-10-26T18:42:22.553Z,57215.63
2023-10-26T18:44:50.116Z,57215.63
2023-10-26T18:47:16.713Z,57215.63
2023-10-26T18:49:43.406Z,57215.63
2023-10-26T18:52:10.339Z,57215.63
2023-10-26T18:54:36.915Z,57215.63
2023-10-26T18:57:04.685Z,57215.63
2023-10-26T18:59:31.597Z,57215.63
2023-10-26T19:01:59.923Z,57215.63
2023-10-26T19:04:26.499Z,57215.63
2023-10-26T19:06:53.599Z,57215.63
2023-10-26T19:09:20.147Z,57215.63
2023-10-26T19:11:46.647Z,57215.63
2023-10-26T19:14:13.273Z,57215.63
2023-10-26T19:16:42.453Z,57215.63
2023-10-26T19:19:12.048Z,57215.63
2023-10-26T19:21:45.204Z,57215.63
2023-10-26T19:24:11.765Z,57215.63
2023-10-26T19:26:38.365Z,57215.63
2023-10-26T19:29:05.085Z,57215.63
2023-10-26T19:31:37.466Z,57215.63
2023-10-26T19:34:04.222Z,57215.63
2023-10-26T19:36:31.178Z,57215.63
2023-10-26T19:38:57.800Z,57215.63
2023-10-26T19:41:24.359Z,57215.63
2023-10-26T19:43:50.894Z,57215.63
2023-10-26T19:46:17.569Z,57215.63
2023-10-26T19:48:44.172Z,57215.63
2023-10-26T19:51:13.798Z,57215.63
2023-10-26T19:53:40.510Z,57215.63
2023-10-26T19:56:07.578Z,57215.63
2023-10-26T19:58:34.102Z,57215.63
2023-10-26T20:01:00.869Z,57215.63
2023-10-26T20:03:27.506Z,57215.63
2023-10-26T20:05:54.063Z,57215.63
2023-10-26T20:08:20.651Z,57215.63
2023-10-26T20:10:47.515Z,57215.63
2023-10-26T20:13:14.081Z,57215.63
2023-10-26T20:15:40.769Z,57215.63
2023-10-26T20:18:11.735Z,57215.63
2023-10-26T20:20:38.654Z,57215.63
2023-10-26T20:23:07.070Z,57215.63
2023-10-26T20:25:33.680Z,57215.63
2023-10-26T20:28:00.318Z,57215.63
2023-10-26T20:30:27.328Z,57215.63
2023-10-26T20:32:54.067Z,57215.63
2023-10-26T20:35:20.656Z,57215.63
2023-10-26T20:37:47.232Z,57215.63
2023-10-26T20:40:14.000Z,57215.63
2023-10-26T20:42:44.241Z,57215.63
2023-10-26T20:45:12.089Z,57215.63
2023-10-26T20:47:38.949Z,57215.63
2023-10-26T20:50:05.934Z,57215.63
2023-10-26T20:52:32.590Z,57215.63
2023-10-26T20:54:59.161Z,57215.63
2023-10-26T20:57:25.723Z,57215.63
2023-10-26T20:59:52.312Z,57215.63
2023-10-26T21:02:18.949Z,57215.63
2023-10-26T21:04:46.039Z,57215.63
2023-10-26T21:07:12.732Z,57215.63
2023-10-26T21:09:39.310Z,57215.63
2023-10-26T21:12:06.092Z,57215.63
2023-10-26T21:14:32.946Z,57215.63
2023-10-26T21:17:00.305Z,57215.63
2023-10-26T21:19:27.045Z,57215.63
2023-10-26T21:21:55.435Z,57215.63
2023-10-26T21:24:22.073Z,57215.63
2023-10-26T21:26:48.609Z,57215.63
2023-10-26T21:29:15.223Z,57215.63
2023-10-26T21:31:41.843Z,57215.63
2023-10-26T21:34:08.547Z,57215.63
2023-10-26T21:36:35.236Z,57215.63
2023-10-26T21:39:01.742Z,57215.63
2023-10-26T21:41:28.758Z,57215.63
2023-10-26T21:43:55.313Z,57215.63
2023-10-26T21:46:22.090Z,57215.63
2023-10-26T21:48:48.665Z,57215.63
2023-10-26T21:51:15.339Z,57215.63
2023-10-26T21:53:41.996Z,57215.63
2023-10-26T21:56:08.665Z,57215.63
2023-10-26T21:58:35.131Z,57215.63
2023-10-26T22:01:02.982Z,57215.63
2023-10-26T22:03:29.821Z,57215.63
2023-10-26T22:05:57.003Z,57215.63
2023-10-26T22:08:23.505Z,57215.63
2023-10-26T22:10:50.014Z,57215.63
2023-10-26T22:13:16.679Z,57215.63
2023-10-26T22:15:43.415Z,57215.63
2023-10-26T22:18:10.122Z,57215.63
2023-10-26T22:20:37.591Z,57215.63
2023-10-26T22:23:07.409Z,57215.63
2023-10-26T22:25:34.279Z,57215.63
2023-10-26T22:28:00.915Z,57215.63
2023-10-26T22:30:27.777Z,57215.63
2023-10-26T22:32:54.467Z,57215.63
2023-10-26T22:35:21.056Z,57215.63
2023-10-26T22:37:47.675Z,57215.63
2023-10-26T22:40:14.272Z,57215.63
2023-10-26T22:42:40.820Z,57215.63
2023-10-26T22:45:07.805Z,57215.63
2023-10-26T22:47:36.661Z,57215.63
2023-10-26T22:50:03.443Z,57215.63
2023-10-26T22:52:30.310Z,57215.63
2023-10-26T22:54:59.744Z,57215.63
2023-10-26T22:57:27.392Z,57215.63
2023-10-26T22:59:56.042Z,57215.63
2023-10-26T23:02:22.950Z,57215.63
2023-10-26T23:04:51.503Z,57215.63
2023-10-26T23:07:18.083Z,57215.63
2023-10-26T23:09:44.770Z,57215.63
2023-10-26T23:12:11.500Z,57215.63
2023-10-26T23:14:38.146Z,57215.63
2023-10-26T23:17:04.744Z,57215.63
2023-10-26T23:19:31.295Z,57215.63
2023-10-26T23:21:57.976Z,57215.63
2023-10-26T23:24:27.753Z,57215.63
2023-10-26T23:26:57.446Z,57215.63
2023-10-26T23:29:24.340Z,57215.63
2023-10-26T23:31:50.911Z,57215.63
2023-10-26T23:34:17.589Z,57215.63
2023-10-26T23:36:44.331Z,57215.63
2023-10-26T23:39:10.970Z,57215.63
2023-10-26T23:41:37.520Z,57215.63
2023-10-26T23:44:04.513Z,57215.63
2023-10-26T23:46:31.116Z,57215.63
2023-10-26T23:48:57.711Z,57215.63
2023-10-26T23:51:24.324Z,57215.63
2023-10-26T23:53:50.989Z,57215.63
2023-10-26T23:56:17.547Z,57215.63
2023-10-26T23:58:44.086Z,57215.63
